createdAt,value
2023-02-02T00:01:48.162Z,98.50
2023-02-02T00:04:19.392Z,98.60
2023-02-02T00:06:48.906Z,98.70
2023-02-02T00:09:19.741Z,98.90
2023-02-02T00:11:51.192Z,99.00
2023-02-02T00:14:20.224Z,99.10
2023-02-02T00:16:50.820Z,99.00
2023-02-02T00:19:21.470Z,98.80
2023-02-02T00:21:50.555Z,98.90
2023-02-02T00:24:20.060Z,98.50
2023-02-02T00:26:54.850Z,98.60
2023-02-02T00:29:26.487Z,98.50
2023-02-02T00:31:55.202Z,98.60
2023-02-02T00:34:24.456Z,98.50
2023-02-02T00:36:53.500Z,98.70
2023-02-02T00:39:26.114Z,98.80
2023-02-02T00:41:56.346Z,98.90
2023-02-02T00:44:47.969Z,99.30
2023-02-02T00:47:16.840Z,99.30
2023-02-02T00:49:45.262Z,99.20
2023-02-02T00:52:13.802Z,99.10
2023-02-02T00:54:42.382Z,99.00
2023-02-02T00:57:14.813Z,99.10
2023-02-02T00:59:43.644Z,99.20
2023-02-02T01:02:13.066Z,98.90
2023-02-02T01:04:42.398Z,98.70
2023-02-02T01:07:10.913Z,98.50
2023-02-02T01:09:39.293Z,98.30
2023-02-02T01:12:08.320Z,98.20
2023-02-02T01:14:38.119Z,98.20
2023-02-02T01:17:06.637Z,97.90
2023-02-02T01:19:35.257Z,98.00
2023-02-02T01:22:03.689Z,97.60
2023-02-02T01:24:32.255Z,97.70
2023-02-02T01:27:01.138Z,97.60
2023-02-02T01:29:29.572Z,97.30
2023-02-02T01:31:59.473Z,97.10
2023-02-02T01:34:28.052Z,97.00
2023-02-02T01:36:56.488Z,97.10
2023-02-02T01:39:25.156Z,97.00
2023-02-02T01:41:53.705Z,96.50
2023-02-02T01:45:14.610Z,96.40
2023-02-02T01:47:50.510Z,96.30
2023-02-02T01:50:20.649Z,96.20
2023-02-02T01:52:52.494Z,96.10
2023-02-02T01:55:26.059Z,95.60
2023-02-02T01:57:59.608Z,95.90
2023-02-02T02:00:28.441Z,95.80
2023-02-02T02:03:03.519Z,95.80
2023-02-02T02:05:36.702Z,95.70
2023-02-02T02:08:13.228Z,95.80
2023-02-02T02:10:41.794Z,95.40
2023-02-02T02:13:10.776Z,95.50
2023-02-02T02:16:06.601Z,95.40
2023-02-02T02:18:47.082Z,95.50
2023-02-02T02:21:51.765Z,95.10
2023-02-02T02:25:30.601Z,95.00
2023-02-02T02:28:34.426Z,94.60
2023-02-02T02:32:10.606Z,94.80
2023-02-02T02:34:52.590Z,94.50
2023-02-02T02:37:32.611Z,94.40
2023-02-02T02:40:09.369Z,94.40
2023-02-02T02:42:43.371Z,94.40
2023-02-02T02:45:14.220Z,94.50
2023-02-02T02:47:45.004Z,94.50
2023-02-02T02:50:13.633Z,94.60
2023-02-02T02:52:42.568Z,94.50
2023-02-02T02:55:13.308Z,94.50
2023-02-02T02:58:10.900Z,94.50
2023-02-02T03:00:59.966Z,94.40
2023-02-02T03:03:53.856Z,94.30
2023-02-02T03:06:28.206Z,94.30
2023-02-02T03:09:02.471Z,94.10
2023-02-02T03:11:31.005Z,94.20
2023-02-02T03:13:59.653Z,94.10
2023-02-02T03:16:28.298Z,94.00
2023-02-02T03:18:59.038Z,93.80
2023-02-02T03:21:27.689Z,93.70
2023-02-02T03:23:56.403Z,93.60
2023-02-02T03:26:25.201Z,93.50
2023-02-02T03:28:54.951Z,93.50
2023-02-02T03:31:23.456Z,93.60
2023-02-02T03:33:51.856Z,93.80
2023-02-02T03:36:21.974Z,93.80
2023-02-02T03:38:50.845Z,93.80
2023-02-02T03:41:19.627Z,93.80
2023-02-02T03:43:48.160Z,93.80
2023-02-02T03:46:16.913Z,93.90
2023-02-02T03:48:45.856Z,94.10
2023-02-02T03:51:16.085Z,94.20
2023-02-02T03:53:47.640Z,94.20
2023-02-02T03:56:17.072Z,94.30
2023-02-02T03:58:46.452Z,94.10
2023-02-02T04:01:16.002Z,94.10
2023-02-02T04:03:46.339Z,94.20
2023-02-02T04:06:14.988Z,94.20
2023-02-02T04:08:43.609Z,93.90
2023-02-02T04:11:13.927Z,93.80
2023-02-02T04:13:43.449Z,93.70
2023-02-02T04:16:13.139Z,93.90
2023-02-02T04:18:42.216Z,93.70
2023-02-02T04:21:10.770Z,93.70
2023-02-02T04:23:39.693Z,93.80
2023-02-02T04:26:08.585Z,93.90
2023-02-02T04:28:38.518Z,94.10
2023-02-02T04:31:07.199Z,94.00
2023-02-02T04:33:36.374Z,94.00
2023-02-02T04:36:05.776Z,94.10
2023-02-02T04:38:34.414Z,94.10
2023-02-02T04:41:08.940Z,94.00
2023-02-02T04:43:39.951Z,93.90
2023-02-02T04:46:08.903Z,94.00
2023-02-02T04:48:37.734Z,93.80
2023-02-02T04:51:08.868Z,93.90
2023-02-02T04:53:37.692Z,94.00
2023-02-02T04:56:11.652Z,94.00
2023-02-02T04:58:41.633Z,94.20
2023-02-02T05:01:11.919Z,94.20
2023-02-02T05:03:41.127Z,94.30
2023-02-02T05:06:09.658Z,94.50
2023-02-02T05:08:38.531Z,94.50
2023-02-02T05:11:11.015Z,94.60
2023-02-02T05:13:41.225Z,94.70
2023-02-02T05:16:09.845Z,94.60
2023-02-02T05:18:38.624Z,94.70
2023-02-02T05:21:07.413Z,94.80
2023-02-02T05:23:35.988Z,94.70
2023-02-02T05:26:04.746Z,94.90
2023-02-02T05:28:35.727Z,95.10
2023-02-02T05:31:09.098Z,95.00
2023-02-02T05:33:37.836Z,95.00
2023-02-02T05:36:07.624Z,95.00
2023-02-02T05:38:36.335Z,95.10
2023-02-02T05:41:06.016Z,94.80
2023-02-02T05:43:35.550Z,94.90
2023-02-02T05:46:05.432Z,95.00
2023-02-02T05:48:35.557Z,95.10
2023-02-02T05:51:08.505Z,95.10
2023-02-02T05:53:37.554Z,95.10
2023-02-02T05:56:06.771Z,95.20
2023-02-02T05:58:35.195Z,95.30
2023-02-02T06:01:03.747Z,95.50
2023-02-02T06:03:32.258Z,95.70
2023-02-02T06:06:02.498Z,95.80
2023-02-02T06:08:31.237Z,96.10
2023-02-02T06:10:59.785Z,96.00
2023-02-02T06:13:28.439Z,96.20
2023-02-02T06:15:56.982Z,96.20
2023-02-02T06:18:25.550Z,96.30
2023-02-02T06:20:58.719Z,96.40
2023-02-02T06:23:29.231Z,96.40
2023-02-02T06:25:57.996Z,96.40
2023-02-02T06:28:26.753Z,96.50
2023-02-02T06:30:55.392Z,96.60
2023-02-02T06:33:24.041Z,96.60
2023-02-02T06:35:52.569Z,96.70
2023-02-02T06:38:21.126Z,96.70
2023-02-02T06:40:51.054Z,96.70
2023-02-02T06:43:19.596Z,96.70
2023-02-02T06:45:48.315Z,96.80
2023-02-02T06:48:17.064Z,96.80
2023-02-02T06:50:45.922Z,96.80
2023-02-02T06:53:14.603Z,97.00
2023-02-02T06:55:43.145Z,97.00
2023-02-02T06:58:13.207Z,97.00
2023-02-02T07:00:42.075Z,97.10
2023-02-02T07:03:10.522Z,97.20
2023-02-02T07:05:39.371Z,97.00
2023-02-02T07:08:08.062Z,96.90
2023-02-02T07:11:13.924Z,96.80
2023-02-02T07:13:28.500Z,96.60
2023-02-02T07:15:58.440Z,96.50
2023-02-02T07:18:27.287Z,96.60
2023-02-02T07:20:55.946Z,96.60
2023-02-02T07:23:24.939Z,96.40
2023-02-02T07:26:03.161Z,96.40
2023-02-02T07:28:33.624Z,96.30
2023-02-02T07:31:03.002Z,96.30
2023-02-02T07:33:31.458Z,96.20
2023-02-02T07:35:59.861Z,96.00
2023-02-02T07:38:28.345Z,95.80
2023-02-02T07:40:56.768Z,95.70
2023-02-02T07:43:25.323Z,95.80
2023-02-02T07:45:55.585Z,95.40
2023-02-02T07:48:24.041Z,95.30
2023-02-02T07:50:52.397Z,94.70
2023-02-02T07:53:21.580Z,94.70
2023-02-02T07:55:49.975Z,94.50
2023-02-02T07:58:18.449Z,93.60
2023-02-02T08:00:46.946Z,93.40
2023-02-02T08:03:16.813Z,92.80
2023-02-02T08:05:45.227Z,92.40
2023-02-02T08:08:13.656Z,91.40
2023-02-02T08:10:48.240Z,91.50
2023-02-02T08:13:16.701Z,91.50
2023-02-02T08:15:45.221Z,91.80
2023-02-02T08:18:13.661Z,92.20
2023-02-02T08:20:44.259Z,92.30
2023-02-02T08:23:16.012Z,92.70
2023-02-02T08:25:44.511Z,93.00
2023-02-02T08:28:12.980Z,93.40
2023-02-02T08:30:41.527Z,93.60
2023-02-02T08:33:09.966Z,93.70
2023-02-02T08:35:43.628Z,93.90
2023-02-02T08:38:12.206Z,93.70
2023-02-02T08:40:40.653Z,93.90
2023-02-02T08:43:09.077Z,93.90
2023-02-02T08:46:02.743Z,93.90
2023-02-02T08:48:27.586Z,94.00
2023-02-02T08:50:59.326Z,94.10
2023-02-02T08:53:29.613Z,94.10
2023-02-02T08:56:02.162Z,94.20
2023-02-02T08:58:31.219Z,94.20
2023-02-02T09:01:07.306Z,94.30
2023-02-02T09:03:38.965Z,94.10
2023-02-02T09:06:11.726Z,94.20
2023-02-02T09:08:40.378Z,93.60
2023-02-02T09:11:11.001Z,92.10
2023-02-02T09:13:41.657Z,91.00
2023-02-02T09:16:12.389Z,89.70
2023-02-02T09:18:41.470Z,87.50
2023-02-02T09:21:15.169Z,86.10
2023-02-02T09:23:45.630Z,85.20
2023-02-02T09:26:17.592Z,84.40
2023-02-02T09:28:48.867Z,83.90
2023-02-02T09:31:17.792Z,84.40
2023-02-02T09:33:46.746Z,86.30
2023-02-02T09:36:18.957Z,87.00
2023-02-02T09:38:48.148Z,88.20
2023-02-02T09:41:54.322Z,88.30
2023-02-02T09:44:48.078Z,88.60
2023-02-02T09:47:23.275Z,89.40
2023-02-02T09:50:02.006Z,88.50
2023-02-02T09:52:40.200Z,88.30
2023-02-02T09:55:16.594Z,87.30
2023-02-02T09:57:51.959Z,85.20
2023-02-02T10:00:30.559Z,85.10
2023-02-02T10:03:05.621Z,84.40
2023-02-02T10:05:47.173Z,83.80
2023-02-02T10:08:34.768Z,84.10
2023-02-02T10:11:21.776Z,83.50
2023-02-02T10:13:52.500Z,81.30
2023-02-02T10:16:23.290Z,80.20
2023-02-02T10:18:58.877Z,78.90
2023-02-02T10:21:34.381Z,77.90
2023-02-02T10:24:05.790Z,80.00
2023-02-02T10:26:41.032Z,76.60
2023-02-02T10:29:18.789Z,76.90
2023-02-02T10:31:59.121Z,74.50
2023-02-02T10:34:33.976Z,74.70
2023-02-02T10:37:29.547Z,74.90
2023-02-02T10:40:16.368Z,74.20
2023-02-02T10:43:21.690Z,73.80
2023-02-02T10:45:53.262Z,73.20
2023-02-02T10:48:24.730Z,71.30
2023-02-02T10:50:59.091Z,74.10
2023-02-02T10:53:30.351Z,72.50
2023-02-02T10:56:06.055Z,70.70
2023-02-02T10:58:41.365Z,69.70
2023-02-02T11:01:11.879Z,69.90
2023-02-02T11:03:40.956Z,68.60
2023-02-02T11:06:29.506Z,70.10
2023-02-02T11:09:00.464Z,70.00
2023-02-02T11:11:35.650Z,69.30
2023-02-02T11:14:14.455Z,68.90
2023-02-02T11:16:44.659Z,69.50
2023-02-02T11:19:24.278Z,71.10
2023-02-02T11:21:54.208Z,70.60
2023-02-02T11:24:23.613Z,68.50
2023-02-02T11:26:55.820Z,69.30
2023-02-02T11:29:27.768Z,69.20
2023-02-02T11:31:56.037Z,70.10
2023-02-02T11:34:26.104Z,69.50
2023-02-02T11:37:02.212Z,68.70
2023-02-02T11:39:30.403Z,69.40
2023-02-02T11:42:06.372Z,67.70
2023-02-02T11:44:36.365Z,67.90
2023-02-02T11:47:05.984Z,67.80
2023-02-02T11:49:38.702Z,67.80
2023-02-02T11:52:08.458Z,68.10
2023-02-02T11:54:38.664Z,68.20
2023-02-02T11:57:11.198Z,69.80
2023-02-02T11:59:40.744Z,69.50
2023-02-02T12:02:26.884Z,68.60
2023-02-02T12:04:56.170Z,69.10
2023-02-02T12:07:28.131Z,68.60
2023-02-02T12:10:00.582Z,68.60
2023-02-02T12:12:39.740Z,67.60
2023-02-02T12:15:19.975Z,67.10
2023-02-02T12:17:49.142Z,66.50
2023-02-02T12:20:32.009Z,67.90
2023-02-02T12:23:14.372Z,66.50
2023-02-02T12:26:19.331Z,65.60
2023-02-02T12:29:02.205Z,66.40
2023-02-02T12:31:37.219Z,66.40
2023-02-02T12:34:11.924Z,66.00
2023-02-02T12:36:50.688Z,65.30
2023-02-02T12:39:27.341Z,66.30
2023-02-02T12:42:22.883Z,64.90
2023-02-02T12:45:09.524Z,64.70
2023-02-02T12:47:42.140Z,65.60
2023-02-02T12:50:23.719Z,64.80
2023-02-02T12:53:04.626Z,65.10
2023-02-02T12:55:39.857Z,63.90
2023-02-02T12:58:15.876Z,64.20
2023-02-02T13:00:58.494Z,64.30
2023-02-02T13:03:34.375Z,63.90
2023-02-02T13:06:28.490Z,63.80
2023-02-02T13:09:00.154Z,63.60
2023-02-02T13:11:37.509Z,64.10
2023-02-02T13:14:10.688Z,63.60
2023-02-02T13:16:44.370Z,63.60
2023-02-02T13:19:19.196Z,62.30
2023-02-02T13:21:48.060Z,63.70
2023-02-02T13:24:21.015Z,63.30
2023-02-02T13:26:50.010Z,64.10
2023-02-02T13:29:25.938Z,64.00
2023-02-02T13:32:00.040Z,63.20
2023-02-02T13:34:42.537Z,61.80
2023-02-02T13:37:17.798Z,62.20
2023-02-02T13:39:48.774Z,63.90
2023-02-02T13:42:25.372Z,64.10
2023-02-02T13:44:56.578Z,63.80
2023-02-02T13:47:31.376Z,64.40
2023-02-02T13:50:04.561Z,64.60
2023-02-02T13:52:51.328Z,64.80
2023-02-02T13:56:00.014Z,65.10
2023-02-02T13:58:49.525Z,65.20
2023-02-02T14:01:18.643Z,65.10
2023-02-02T14:03:54.133Z,65.20
2023-02-02T14:06:24.278Z,65.60
2023-02-02T14:08:55.339Z,66.60
2023-02-02T14:11:27.343Z,67.00
2023-02-02T14:14:15.390Z,67.80
2023-02-02T14:16:49.700Z,68.50
2023-02-02T14:19:35.109Z,69.20
2023-02-02T14:22:25.585Z,69.70
2023-02-02T14:24:54.649Z,70.00
2023-02-02T14:27:43.386Z,71.20
2023-02-02T14:30:25.039Z,70.90
2023-02-02T14:32:53.513Z,70.80
2023-02-02T14:35:52.264Z,71.20
2023-02-02T14:38:29.184Z,71.30
2023-02-02T14:41:02.577Z,71.70
2023-02-02T14:43:44.329Z,72.30
2023-02-02T14:46:36.081Z,72.60
2023-02-02T14:49:29.793Z,72.60
2023-02-02T14:52:01.409Z,72.20
2023-02-02T14:54:38.242Z,72.30
2023-02-02T14:57:21.607Z,72.80
2023-02-02T14:59:49.996Z,73.00
2023-02-02T15:02:22.124Z,73.10
2023-02-02T15:04:50.634Z,73.50
2023-02-02T15:07:51.979Z,73.70
2023-02-02T15:10:58.844Z,73.70
2023-02-02T15:13:28.385Z,74.30
2023-02-02T15:16:07.629Z,74.30
2023-02-02T15:18:42.005Z,74.80
2023-02-02T15:21:11.054Z,75.10
2023-02-02T15:23:42.712Z,75.30
2023-02-02T15:26:16.429Z,75.60
2023-02-02T15:28:47.966Z,75.70
2023-02-02T15:31:20.537Z,76.30
2023-02-02T15:33:51.001Z,77.00
2023-02-02T15:36:21.805Z,77.20
2023-02-02T15:38:51.782Z,77.60
2023-02-02T15:41:24.870Z,77.60
2023-02-02T15:43:53.591Z,77.40
2023-02-02T15:46:25.246Z,77.40
2023-02-02T15:49:32.812Z,77.60
2023-02-02T15:52:04.956Z,77.90
2023-02-02T15:54:34.366Z,77.90
2023-02-02T15:57:04.425Z,78.50
2023-02-02T15:59:40.753Z,78.50
2023-02-02T16:02:21.682Z,78.50
2023-02-02T16:04:50.134Z,78.70
2023-02-02T16:07:20.123Z,78.70
2023-02-02T16:09:48.408Z,78.60
2023-02-02T16:12:19.993Z,79.00
2023-02-02T16:14:49.591Z,79.20
2023-02-02T16:17:21.878Z,79.70
2023-02-02T16:19:51.303Z,80.40
2023-02-02T16:22:23.890Z,80.20
2023-02-02T16:24:55.160Z,80.00
2023-02-02T16:27:27.555Z,80.10
2023-02-02T16:29:57.444Z,80.20
2023-02-02T16:32:31.179Z,80.40
2023-02-02T16:35:04.467Z,80.60
2023-02-02T16:37:34.291Z,80.70
2023-02-02T16:40:18.041Z,81.10
2023-02-02T16:42:47.616Z,81.30
2023-02-02T16:45:47.442Z,82.50
2023-02-02T16:48:30.613Z,82.10
2023-02-02T16:51:08.590Z,81.90
2023-02-02T16:53:37.548Z,82.10
2023-02-02T16:56:06.753Z,82.80
2023-02-02T16:58:40.220Z,83.30
2023-02-02T17:01:16.933Z,83.50
2023-02-02T17:03:52.651Z,83.70
2023-02-02T17:06:38.328Z,84.10
2023-02-02T17:09:26.941Z,84.10
2023-02-02T17:12:01.113Z,84.10
2023-02-02T17:14:33.733Z,84.40
2023-02-02T17:17:05.217Z,84.90
2023-02-02T17:19:33.832Z,85.40
2023-02-02T17:22:05.729Z,85.50
2023-02-02T17:24:34.195Z,86.00
2023-02-02T17:27:02.962Z,86.50
2023-02-02T17:29:32.882Z,87.10
2023-02-02T17:32:01.156Z,87.20
2023-02-02T17:34:30.922Z,87.60
2023-02-02T17:37:00.197Z,87.10
2023-02-02T17:39:28.395Z,87.30
2023-02-02T17:41:56.681Z,87.90
2023-02-02T17:44:24.849Z,88.30
2023-02-02T17:46:54.500Z,88.30
2023-02-02T17:49:22.853Z,88.60
2023-02-02T17:51:51.100Z,89.00
2023-02-02T17:54:19.337Z,89.00
2023-02-02T17:56:47.966Z,89.10
2023-02-02T17:59:16.212Z,89.10
2023-02-02T18:01:45.550Z,89.60
2023-02-02T18:04:16.063Z,89.50
2023-02-02T18:06:44.328Z,89.70
2023-02-02T18:09:12.621Z,90.00
2023-02-02T18:11:42.516Z,90.20
2023-02-02T18:14:11.069Z,90.40
2023-02-02T18:16:39.380Z,90.60
2023-02-02T18:19:07.669Z,90.60
2023-02-02T18:21:37.599Z,90.60
2023-02-02T18:24:06.204Z,90.60
2023-02-02T18:26:35.015Z,90.70
2023-02-02T18:29:03.436Z,90.90
2023-02-02T18:31:32.122Z,91.00
2023-02-02T18:34:00.397Z,91.00
2023-02-02T18:36:28.658Z,91.10
2023-02-02T18:38:58.424Z,91.10
2023-02-02T18:41:26.774Z,91.30
2023-02-02T18:43:55.869Z,91.40
2023-02-02T18:46:24.435Z,91.40
2023-02-02T18:48:52.732Z,91.40
2023-02-02T18:51:22.149Z,91.40
2023-02-02T18:53:50.501Z,91.50
2023-02-02T18:56:20.144Z,91.60
2023-02-02T18:58:48.649Z,91.80
2023-02-02T19:01:19.612Z,92.00
2023-02-02T19:03:49.821Z,92.20
2023-02-02T19:06:36.366Z,92.20
2023-02-02T19:09:04.921Z,92.40
2023-02-02T19:11:39.081Z,92.60
2023-02-02T19:14:14.890Z,92.60
2023-02-02T19:16:44.268Z,92.70
2023-02-02T19:19:24.196Z,93.00
2023-02-02T19:21:54.531Z,93.30
2023-02-02T19:24:23.193Z,93.60
2023-02-02T19:26:53.573Z,93.60
2023-02-02T19:29:23.474Z,93.40
2023-02-02T19:31:53.856Z,93.30
2023-02-02T19:34:23.613Z,93.20
2023-02-02T19:36:52.417Z,93.40
2023-02-02T19:39:22.991Z,93.50
2023-02-02T19:41:53.808Z,93.70
2023-02-02T19:44:22.659Z,93.90
2023-02-02T19:46:52.606Z,94.00
2023-02-02T19:49:26.346Z,94.00
2023-02-02T19:51:55.977Z,94.10
2023-02-02T19:54:33.931Z,94.20
2023-02-02T19:57:12.172Z,94.20
2023-02-02T19:59:41.864Z,94.20
2023-02-02T20:02:39.280Z,94.30
2023-02-02T20:05:15.524Z,94.40
2023-02-02T20:07:43.801Z,94.50
2023-02-02T20:10:18.798Z,94.60
2023-02-02T20:12:49.200Z,94.70
2023-02-02T20:15:29.919Z,94.70
2023-02-02T20:17:59.779Z,94.90
2023-02-02T20:20:29.755Z,95.00
2023-02-02T20:22:58.596Z,95.10
2023-02-02T20:25:26.857Z,95.20
2023-02-02T20:27:59.028Z,95.40
2023-02-02T20:30:30.906Z,95.50
2023-02-02T20:33:01.608Z,95.70
2023-02-02T20:35:36.636Z,95.80
2023-02-02T20:38:18.515Z,96.00
2023-02-02T20:40:46.895Z,96.20
2023-02-02T20:43:16.602Z,96.10
2023-02-02T20:45:45.143Z,96.20
2023-02-02T20:48:14.253Z,96.20
2023-02-02T20:50:43.082Z,96.30
2023-02-02T20:53:11.473Z,96.20
2023-02-02T20:55:39.692Z,96.30
2023-02-02T20:58:09.654Z,96.30
2023-02-02T21:00:39.376Z,96.40
2023-02-02T21:03:07.763Z,96.50
2023-02-02T21:05:36.027Z,96.50
2023-02-02T21:08:04.667Z,96.70
2023-02-02T21:10:32.876Z,96.70
2023-02-02T21:13:01.139Z,96.70
2023-02-02T21:15:29.323Z,96.80
2023-02-02T21:17:58.972Z,96.90
2023-02-02T21:20:27.579Z,96.90
2023-02-02T21:22:56.855Z,96.90
2023-02-02T21:25:25.141Z,97.00
2023-02-02T21:27:53.313Z,96.90
2023-02-02T21:30:21.510Z,96.90
2023-02-02T21:32:49.732Z,96.90
2023-02-02T21:35:19.434Z,96.80
2023-02-02T21:37:51.547Z,96.80
2023-02-02T21:40:27.995Z,97.00
2023-02-02T21:42:58.707Z,97.00
2023-02-02T21:45:33.266Z,97.00
2023-02-02T21:48:03.215Z,97.00
2023-02-02T21:50:35.078Z,97.00
2023-02-02T21:53:18.402Z,96.90
2023-02-02T21:55:47.429Z,96.90
2023-02-02T21:58:20.643Z,97.00
2023-02-02T22:00:49.123Z,97.00
2023-02-02T22:03:29.277Z,97.00
2023-02-02T22:06:29.433Z,97.20
2023-02-02T22:09:03.005Z,97.40
2023-02-02T22:11:37.271Z,97.50
2023-02-02T22:14:16.272Z,97.40
2023-02-02T22:16:48.686Z,97.50
2023-02-02T22:19:28.263Z,97.50
2023-02-02T22:22:14.506Z,97.60
2023-02-02T22:24:43.306Z,97.70
2023-02-02T22:27:20.461Z,98.10
2023-02-02T22:29:48.644Z,98.20
2023-02-02T22:32:16.843Z,98.50
2023-02-02T22:34:45.040Z,99.00
2023-02-02T22:37:14.648Z,99.30
2023-02-02T22:39:43.439Z,99.50
2023-02-02T22:42:11.702Z,99.80
2023-02-02T22:44:39.855Z,99.90
2023-02-02T22:47:08.160Z,99.90
2023-02-02T22:49:36.385Z,99.90
2023-02-02T22:52:04.785Z,99.90
2023-02-02T22:54:34.343Z,99.90
2023-02-02T22:57:02.484Z,99.90
2023-02-02T22:59:30.697Z,99.90
2023-02-02T23:01:58.836Z,99.90
2023-02-02T23:04:27.039Z,99.90
2023-02-02T23:06:55.183Z,99.90
2023-02-02T23:09:23.400Z,99.90
2023-02-02T23:11:52.921Z,99.90
2023-02-02T23:14:21.084Z,99.90
2023-02-02T23:16:49.289Z,99.90
2023-02-02T23:19:17.471Z,99.90
2023-02-02T23:21:45.681Z,99.90
2023-02-02T23:24:13.935Z,99.90
2023-02-02T23:26:42.139Z,99.90
2023-02-02T23:29:11.776Z,99.90
2023-02-02T23:31:40.060Z,99.90
2023-02-02T23:34:08.278Z,99.90
2023-02-02T23:36:36.491Z,99.90
2023-02-02T23:39:04.766Z,99.90
2023-02-02T23:41:32.967Z,99.90
2023-02-02T23:44:01.313Z,99.90
2023-02-02T23:46:31.135Z,99.90
2023-02-02T23:49:00.607Z,99.90
2023-02-02T23:51:28.875Z,99.90
2023-02-02T23:53:57.695Z,99.90
2023-02-02T23:56:25.990Z,99.90
2023-02-02T23:58:54.263Z,99.90
